createdAt,value
2022-07-31T00:00:04.728Z,97857.28
2022-07-31T00:02:39.207Z,97851.97
2022-07-31T00:05:07.011Z,97861.63
2022-07-31T00:07:33.585Z,97862.63
2022-07-31T00:10:00.174Z,97854.63
2022-07-31T00:12:26.783Z,97851.16
2022-07-31T00:14:53.529Z,97848.94
2022-07-31T00:17:20.184Z,97862.47
2022-07-31T00:19:47.180Z,97858.31
2022-07-31T00:22:16.023Z,97868.97
2022-07-31T00:24:42.610Z,97866.31
2022-07-31T00:27:10.816Z,97855.94
2022-07-31T00:29:38.593Z,97860.97
2022-07-31T00:32:05.802Z,97857.47
2022-07-31T00:37:01.423Z,97856.47
2022-07-31T00:39:28.225Z,97852.97
2022-07-31T00:41:55.127Z,97849.47
2022-07-31T00:44:22.007Z,97852.13
2022-07-31T00:46:49.799Z,97855.66
2022-07-31T00:49:16.515Z,97850.31
2022-07-31T00:51:43.209Z,97854.78
2022-07-31T00:54:10.420Z,97851.31
2022-07-31T00:56:44.084Z,97845.13
2022-07-31T00:59:10.660Z,97849.63
2022-07-31T01:01:37.315Z,97854.97
2022-07-31T01:04:04.027Z,97855.78
2022-07-31T01:06:30.697Z,97861.09
2022-07-31T01:08:57.618Z,97854.97
2022-07-31T01:11:44.764Z,97861.09
2022-07-31T01:14:12.684Z,97860.28
2022-07-31T01:16:43.001Z,97851.47
2022-07-31T01:19:39.825Z,97855.78
2022-07-31T01:22:32.988Z,97853.13
2022-07-31T01:25:11.709Z,97846.16
2022-07-31T01:28:21.896Z,97838.16
2022-07-31T01:31:10.692Z,97836.50
2022-07-31T01:34:21.935Z,97842.63
2022-07-31T01:36:58.291Z,97842.63
2022-07-31T01:39:26.836Z,97838.16
2022-07-31T01:42:04.054Z,97838.28
2022-07-31T01:44:35.061Z,97843.50
2022-07-31T01:47:03.631Z,97832.97
2022-07-31T01:49:33.105Z,97828.50
2022-07-31T01:52:04.718Z,97836.50
2022-07-31T01:54:35.245Z,97836.50
2022-07-31T01:57:04.076Z,97831.97
2022-07-31T01:59:39.109Z,97832.97
2022-07-31T02:02:19.395Z,97813.16
2022-07-31T02:04:47.254Z,97814.66
2022-07-31T02:07:15.511Z,97824.97
2022-07-31T02:09:57.083Z,97821.50
2022-07-31T02:12:33.757Z,97799.16
2022-07-31T02:15:06.387Z,97817.84
2022-07-31T02:17:35.100Z,97804.66
2022-07-31T02:20:23.512Z,97811.66
2022-07-31T02:22:54.309Z,97785.16
2022-07-31T02:25:21.103Z,97804.84
2022-07-31T02:27:57.784Z,97800.19
2022-07-31T02:30:39.138Z,97810.00
2022-07-31T02:33:12.836Z,97799.34
2022-07-31T02:35:44.298Z,97795.88
2022-07-31T02:38:22.167Z,97794.88
2022-07-31T02:40:52.776Z,97796.69
2022-07-31T02:43:20.504Z,97795.88
2022-07-31T02:45:47.870Z,97784.38
2022-07-31T02:48:14.839Z,97791.53
2022-07-31T02:50:46.625Z,97796.69
2022-07-31T02:53:13.486Z,97783.34
2022-07-31T02:55:40.319Z,97787.88
2022-07-31T02:58:07.203Z,97784.38
2022-07-31T03:00:34.590Z,97782.72
2022-07-31T03:03:02.050Z,97789.72
2022-07-31T03:05:29.461Z,97787.06
2022-07-31T03:07:56.648Z,97788.03
2022-07-31T03:10:23.395Z,97789.84
2022-07-31T03:13:04.057Z,97785.38
2022-07-31T03:15:32.748Z,97778.53
2022-07-31T03:18:00.743Z,97787.19
2022-07-31T03:20:36.585Z,97779.19
2022-07-31T03:23:04.277Z,97783.53
2022-07-31T03:25:33.543Z,97779.19
2022-07-31T03:28:00.544Z,97775.53
2022-07-31T03:30:27.907Z,97782.72
2022-07-31T03:32:57.440Z,97773.88
2022-07-31T03:35:24.950Z,97773.88
2022-07-31T03:37:52.282Z,97774.72
2022-07-31T03:40:18.921Z,97774.72
2022-07-31T03:42:47.640Z,97772.06
2022-07-31T03:45:15.788Z,97775.72
2022-07-31T03:47:42.760Z,97774.88
2022-07-31T03:50:11.233Z,97768.56
2022-07-31T03:52:38.623Z,97774.72
2022-07-31T03:55:06.683Z,97775.72
2022-07-31T03:57:34.882Z,97771.38
2022-07-31T04:00:03.205Z,97778.38
2022-07-31T04:02:32.726Z,97770.38
2022-07-31T04:05:09.816Z,97781.88
2022-07-31T04:07:38.255Z,97783.69
2022-07-31T04:10:05.277Z,97789.03
2022-07-31T04:12:32.157Z,97783.69
2022-07-31T04:14:58.782Z,97786.38
2022-07-31T04:17:25.921Z,97786.38
2022-07-31T04:19:52.906Z,97792.50
2022-07-31T04:22:19.547Z,97790.84
2022-07-31T04:24:46.705Z,97799.69
2022-07-31T04:27:48.819Z,97796.16
2022-07-31T04:30:16.794Z,97802.34
2022-07-31T04:32:44.516Z,97801.50
2022-07-31T04:35:13.705Z,97797.19
2022-07-31T04:37:40.655Z,97809.47
2022-07-31T04:40:16.010Z,97807.97
2022-07-31T04:42:42.583Z,97819.13
2022-07-31T04:45:10.484Z,97834.28
2022-07-31T04:47:38.185Z,97829.94
2022-07-31T04:50:05.490Z,97830.78
2022-07-31T04:52:32.758Z,97822.78
2022-07-31T04:55:05.627Z,97835.28
2022-07-31T04:57:32.462Z,97836.25
2022-07-31T05:00:01.411Z,97837.13
2022-07-31T05:02:33.005Z,97834.47
2022-07-31T05:04:59.841Z,97844.94
2022-07-31T05:07:32.190Z,97839.78
2022-07-31T05:10:04.880Z,97845.94
2022-07-31T05:12:31.645Z,97839.78
2022-07-31T05:14:58.388Z,97835.75
2022-07-31T05:17:25.584Z,97847.59
2022-07-31T05:20:24.204Z,97846.91
2022-07-31T05:23:11.879Z,97855.75
2022-07-31T05:25:57.199Z,97854.09
2022-07-31T05:28:29.754Z,97844.22
2022-07-31T05:30:57.604Z,97858.41
2022-07-31T05:33:24.272Z,97861.09
2022-07-31T05:35:50.969Z,97863.75
2022-07-31T05:38:17.895Z,97869.06
2022-07-31T05:41:03.675Z,97865.56
2022-07-31T05:43:53.272Z,97870.88
2022-07-31T05:46:24.420Z,97849.69
2022-07-31T05:48:52.346Z,97868.38
2022-07-31T05:51:20.118Z,97866.53
2022-07-31T05:53:47.729Z,97868.38
2022-07-31T05:56:33.004Z,97874.53
2022-07-31T05:59:00.821Z,97871.88
2022-07-31T06:01:27.463Z,97875.38
2022-07-31T06:03:54.185Z,97873.53
2022-07-31T06:06:24.167Z,97874.53
2022-07-31T06:08:50.987Z,97880.69
2022-07-31T06:11:17.584Z,97886.03
2022-07-31T06:13:44.257Z,97888.69
2022-07-31T06:16:28.487Z,97888.69
2022-07-31T06:18:56.443Z,97887.84
2022-07-31T06:21:25.554Z,97879.03
2022-07-31T06:23:54.176Z,97879.03
2022-07-31T06:26:27.623Z,97878.03
2022-07-31T06:28:54.634Z,97883.38
2022-07-31T06:31:22.125Z,97887.84
2022-07-31T06:33:52.735Z,97878.88
2022-07-31T06:36:22.400Z,97891.34
2022-07-31T06:38:59.450Z,97888.69
2022-07-31T06:41:44.266Z,97887.00
2022-07-31T06:44:35.106Z,97881.69
2022-07-31T06:47:31.149Z,97882.69
2022-07-31T06:50:18.049Z,97888.00
2022-07-31T06:52:52.378Z,97882.69
2022-07-31T06:55:19.288Z,97883.53
2022-07-31T06:57:46.431Z,97885.19
2022-07-31T07:00:19.754Z,97893.66
2022-07-31T07:02:48.032Z,97889.69
2022-07-31T07:05:15.145Z,97883.53
2022-07-31T07:07:42.188Z,97893.16
2022-07-31T07:10:09.400Z,97902.31
2022-07-31T07:13:01.681Z,97902.16
2022-07-31T07:15:32.928Z,97903.00
2022-07-31T07:17:59.572Z,97913.47
2022-07-31T07:20:35.245Z,97915.47
2022-07-31T07:23:01.908Z,97914.47
2022-07-31T07:25:36.889Z,97916.31
2022-07-31T07:28:05.044Z,97921.63
2022-07-31T07:30:31.716Z,97919.78
2022-07-31T07:33:01.082Z,97910.97
2022-07-31T07:35:33.787Z,97912.81
2022-07-31T07:38:05.335Z,97917.97
2022-07-31T07:40:32.836Z,97918.97
2022-07-31T07:43:02.998Z,97922.59
2022-07-31T07:45:31.296Z,97929.63
2022-07-31T07:48:06.381Z,97930.44
2022-07-31T07:50:54.283Z,97933.09
2022-07-31T07:53:27.663Z,97932.28
2022-07-31T07:56:13.052Z,97932.28
2022-07-31T07:58:58.190Z,97934.13
2022-07-31T08:01:43.414Z,97944.75
2022-07-31T08:04:18.586Z,97931.75
2022-07-31T08:06:46.313Z,97945.59
2022-07-31T08:09:13.140Z,97949.06
2022-07-31T08:11:58.267Z,97952.75
2022-07-31T08:14:45.132Z,97951.06
2022-07-31T08:17:30.713Z,97940.72
2022-07-31T08:19:57.770Z,97956.41
2022-07-31T08:22:24.417Z,97965.22
2022-07-31T08:24:51.053Z,97967.06
2022-07-31T08:27:40.532Z,97947.50
2022-07-31T08:30:09.906Z,97966.06
2022-07-31T08:32:38.544Z,97964.38
2022-07-31T08:35:05.817Z,97967.72
2022-07-31T08:38:01.147Z,97962.72
2022-07-31T08:40:20.971Z,97971.53
2022-07-31T08:42:47.767Z,97968.72
2022-07-31T08:45:15.197Z,97975.84
2022-07-31T08:47:59.836Z,97964.31
2022-07-31T08:50:32.181Z,97976.72
2022-07-31T08:53:02.723Z,97964.03
2022-07-31T08:55:57.869Z,97960.66
2022-07-31T08:58:29.677Z,97972.22
2022-07-31T09:00:57.033Z,97976.72
2022-07-31T09:03:23.856Z,97976.84
2022-07-31T09:05:54.295Z,97979.38
2022-07-31T09:08:21.401Z,97984.69
2022-07-31T09:11:02.073Z,97982.03
2022-07-31T09:13:30.402Z,97987.38
2022-07-31T09:15:59.077Z,97990.84
2022-07-31T09:18:27.145Z,97981.03
2022-07-31T09:21:05.521Z,97983.69
2022-07-31T09:23:32.960Z,97989.00
2022-07-31T09:26:04.208Z,97989.88
2022-07-31T09:28:42.719Z,97993.50
2022-07-31T09:31:11.232Z,98001.34
2022-07-31T09:33:58.453Z,98005.84
2022-07-31T09:36:40.311Z,97994.34
2022-07-31T09:39:27.827Z,97998.66
2022-07-31T09:42:16.600Z,97984.47
2022-07-31T09:45:03.814Z,97999.66
2022-07-31T09:47:32.635Z,98006.00
2022-07-31T09:50:05.097Z,97998.84
2022-07-31T09:52:32.967Z,97998.66
2022-07-31T09:55:15.588Z,98002.31
2022-07-31T09:57:58.372Z,98003.19
2022-07-31T10:00:29.109Z,98006.66
2022-07-31T10:02:57.049Z,98004.00
2022-07-31T10:05:27.241Z,98007.53
2022-07-31T10:08:00.242Z,98006.66
2022-07-31T10:13:08.473Z,98016.50
2022-07-31T10:15:37.321Z,98018.16
2022-07-31T10:18:36.494Z,97952.34
2022-07-31T10:21:18.040Z,98018.16
2022-07-31T10:23:53.381Z,98021.66
2022-07-31T10:26:21.412Z,98024.31
2022-07-31T10:28:49.481Z,98031.31
2022-07-31T10:31:16.743Z,98023.34
2022-07-31T10:33:45.805Z,98025.31
2022-07-31T10:36:40.996Z,98036.47
2022-07-31T10:39:35.993Z,98033.81
2022-07-31T10:42:37.803Z,98033.97
2022-07-31T10:45:10.245Z,98033.97
2022-07-31T10:48:05.352Z,98046.44
2022-07-31T10:51:05.017Z,98028.72
2022-07-31T10:53:58.793Z,98043.78
2022-07-31T10:56:46.161Z,98042.97
2022-07-31T10:59:31.442Z,98049.09
2022-07-31T11:02:10.358Z,98043.94
2022-07-31T11:04:43.727Z,98047.28
2022-07-31T11:07:30.269Z,98052.63
2022-07-31T11:10:09.779Z,98048.28
2022-07-31T11:13:05.511Z,98059.75
2022-07-31T11:16:05.265Z,98056.28
2022-07-31T11:19:06.518Z,98055.44
2022-07-31T11:21:42.269Z,98060.59
2022-07-31T11:24:18.716Z,98057.25
2022-07-31T11:26:55.863Z,98053.59
2022-07-31T11:29:58.940Z,98051.75
2022-07-31T11:32:25.511Z,98048.28
2022-07-31T11:34:54.860Z,98043.13
2022-07-31T11:37:25.870Z,98051.75
2022-07-31T11:39:54.135Z,98062.41
2022-07-31T11:42:27.294Z,98057.94
2022-07-31T11:45:11.054Z,98062.41
2022-07-31T11:48:12.039Z,98052.38
2022-07-31T11:50:40.067Z,98058.41
2022-07-31T11:53:07.113Z,98062.41
2022-07-31T11:55:58.114Z,98053.59
2022-07-31T11:58:26.573Z,98066.75
2022-07-31T12:00:53.077Z,98065.94
2022-07-31T12:03:22.687Z,98071.25
2022-07-31T12:05:52.294Z,98065.06
2022-07-31T12:08:19.636Z,98051.72
2022-07-31T12:13:15.957Z,98072.09
2022-07-31T12:16:00.556Z,98070.41
2022-07-31T12:18:28.740Z,98070.41
2022-07-31T12:21:05.596Z,98070.41
2022-07-31T12:23:44.175Z,98073.06
2022-07-31T12:26:13.365Z,98077.41
2022-07-31T12:28:40.407Z,98073.22
2022-07-31T12:31:07.109Z,98075.72
2022-07-31T12:33:41.329Z,98076.59
2022-07-31T12:36:16.295Z,98080.38
2022-07-31T12:38:49.117Z,98081.06
2022-07-31T12:41:16.816Z,98075.72
2022-07-31T12:43:51.006Z,98079.25
2022-07-31T12:46:35.895Z,98085.41
2022-07-31T12:49:06.542Z,98082.72
2022-07-31T12:51:45.284Z,98072.94
2022-07-31T12:54:15.185Z,98079.25
2022-07-31T12:56:42.747Z,98075.72
2022-07-31T12:59:10.660Z,98073.91
2022-07-31T13:01:38.129Z,98064.56
2022-07-31T13:04:07.471Z,98077.56
2022-07-31T13:06:36.079Z,98077.41
2022-07-31T13:09:03.148Z,98082.72
2022-07-31T13:11:46.415Z,98085.41
2022-07-31T13:14:17.100Z,98073.91
2022-07-31T13:16:49.644Z,98078.41
2022-07-31T13:19:18.545Z,98079.25
2022-07-31T13:21:49.620Z,98081.06
2022-07-31T13:24:18.802Z,98083.72
2022-07-31T13:26:45.749Z,98081.91
2022-07-31T13:31:27.800Z,98081.91
2022-07-31T13:33:54.400Z,98080.22
2022-07-31T13:36:20.994Z,98082.88
2022-07-31T13:38:49.804Z,98082.88
2022-07-31T13:41:27.769Z,98066.16
2022-07-31T13:43:59.851Z,98086.53
2022-07-31T13:46:28.577Z,98097.19
2022-07-31T13:48:57.551Z,98091.88
2022-07-31T13:51:28.946Z,98089.19
2022-07-31T13:53:55.795Z,98091.03
2022-07-31T13:56:39.024Z,98091.03
2022-07-31T13:59:09.349Z,98090.19
2022-07-31T14:02:04.329Z,98092.03
2022-07-31T14:04:23.833Z,98091.88
2022-07-31T14:06:50.660Z,98094.69
2022-07-31T14:09:18.577Z,98092.03
2022-07-31T14:11:45.133Z,98097.34
2022-07-31T14:14:12.562Z,98099.19
2022-07-31T14:16:39.568Z,98096.53
2022-07-31T14:19:06.223Z,98095.66
2022-07-31T14:21:34.275Z,98100.16
2022-07-31T14:24:00.890Z,98097.34
2022-07-31T14:26:29.473Z,98096.53
2022-07-31T14:28:56.269Z,98093.00
2022-07-31T14:31:22.874Z,98095.66
2022-07-31T14:33:49.484Z,98095.66
2022-07-31T14:36:16.091Z,98095.66
2022-07-31T14:38:42.715Z,98097.50
2022-07-31T14:41:09.297Z,98101.97
2022-07-31T14:43:36.200Z,98109.97
2022-07-31T14:46:02.697Z,98094.97
2022-07-31T14:48:29.239Z,98110.94
2022-07-31T14:50:56.269Z,98113.47
2022-07-31T14:53:24.415Z,98115.44
2022-07-31T14:55:51.203Z,98111.81
2022-07-31T14:58:21.368Z,98121.59
2022-07-31T15:00:48.016Z,98111.97
2022-07-31T15:03:14.667Z,98123.44
2022-07-31T15:06:49.303Z,98118.94
2022-07-31T15:08:28.417Z,98119.78
2022-07-31T15:10:54.995Z,98121.59
2022-07-31T15:13:21.620Z,98118.94
2022-07-31T15:15:51.179Z,98111.09
2022-07-31T15:18:18.982Z,98119.94
2022-07-31T15:20:45.581Z,98120.94
2022-07-31T15:23:12.469Z,98127.94
2022-07-31T15:25:39.089Z,98124.41
2022-07-31T15:28:05.805Z,98129.75
2022-07-31T15:30:35.273Z,98140.38
2022-07-31T15:33:01.920Z,98124.41
2022-07-31T15:35:28.643Z,98134.09
2022-07-31T15:37:55.196Z,98128.91
2022-07-31T15:40:21.787Z,98139.56
2022-07-31T15:42:49.024Z,98130.88
2022-07-31T15:45:18.398Z,98134.41
2022-07-31T15:47:46.161Z,98142.22
2022-07-31T15:50:15.314Z,98130.72
2022-07-31T15:52:42.623Z,98130.72
2022-07-31T15:55:10.105Z,98132.56
2022-07-31T15:57:36.701Z,98132.56
2022-07-31T16:00:05.993Z,98129.91
2022-07-31T16:02:38.247Z,98131.88
2022-07-31T16:05:11.333Z,98130.72
2022-07-31T16:08:31.905Z,98132.56
2022-07-31T16:10:33.928Z,98118.50
2022-07-31T16:15:29.461Z,98139.72
2022-07-31T16:17:56.110Z,98137.88
2022-07-31T16:20:26.433Z,98138.88
2022-07-31T16:22:56.421Z,98137.06
2022-07-31T16:25:24.570Z,98137.06
2022-07-31T16:27:51.600Z,98126.84
2022-07-31T16:30:18.204Z,98140.72
2022-07-31T16:32:44.900Z,98139.72
2022-07-31T16:35:12.358Z,98141.53
2022-07-31T16:37:50.009Z,98137.06
2022-07-31T16:40:28.556Z,98126.84
2022-07-31T16:42:56.389Z,98133.97
2022-07-31T16:45:23.416Z,98146.84
2022-07-31T16:47:51.729Z,98135.38
2022-07-31T16:50:18.697Z,98122.13
2022-07-31T16:55:01.578Z,98145.19
2022-07-31T16:57:28.658Z,98143.50
2022-07-31T16:59:57.281Z,98153.16
2022-07-31T17:02:24.537Z,98148.69
2022-07-31T17:04:54.048Z,98151.34
2022-07-31T17:07:20.815Z,98154.00
2022-07-31T17:09:47.466Z,98155.00
2022-07-31T17:12:14.122Z,98157.66
2022-07-31T17:14:43.350Z,98155.00
2022-07-31T17:17:10.353Z,98158.63
2022-07-31T17:19:45.864Z,98153.47
2022-07-31T17:22:17.946Z,98163.97
2022-07-31T17:24:50.690Z,98165.81
2022-07-31T17:27:18.850Z,98160.59
2022-07-31T17:29:45.690Z,98162.28
2022-07-31T17:32:12.528Z,98167.78
2022-07-31T17:34:40.413Z,98175.59
2022-07-31T17:37:08.783Z,98152.66
2022-07-31T17:39:36.225Z,98174.78
2022-07-31T17:42:03.046Z,98175.75
2022-07-31T17:44:29.987Z,98166.41
2022-07-31T17:46:57.803Z,98174.78
2022-07-31T17:49:30.234Z,98173.91
2022-07-31T17:51:58.947Z,98182.88
2022-07-31T17:54:28.712Z,98174.22
2022-07-31T17:56:55.333Z,98175.75
2022-07-31T17:59:23.128Z,98188.22
2022-07-31T18:01:51.598Z,98182.06
2022-07-31T18:04:30.121Z,98172.38
2022-07-31T18:06:58.775Z,98180.22
2022-07-31T18:09:26.474Z,98171.56
2022-07-31T18:11:54.313Z,98176.72
2022-07-31T18:14:21.309Z,98174.06
2022-07-31T18:16:51.986Z,98174.06
2022-07-31T18:19:19.099Z,98170.63
2022-07-31T18:21:45.705Z,98183.03
2022-07-31T18:24:12.269Z,98186.69
2022-07-31T18:26:41.536Z,98183.91
2022-07-31T18:29:08.071Z,98177.72
2022-07-31T18:31:37.198Z,98180.38
2022-07-31T18:34:05.075Z,98184.88
2022-07-31T18:36:35.093Z,98188.53
2022-07-31T18:39:03.225Z,98184.19
2022-07-31T18:41:33.683Z,98180.53
2022-07-31T18:44:01.258Z,98188.53
2022-07-31T18:48:46.171Z,98184.19
2022-07-31T18:51:13.240Z,98191.19
2022-07-31T18:53:40.023Z,98198.34
2022-07-31T18:56:06.800Z,98190.63
2022-07-31T18:58:33.413Z,98187.00
2022-07-31T19:01:00.691Z,98193.13
2022-07-31T19:03:29.690Z,98184.50
2022-07-31T19:05:56.594Z,98197.63
2022-07-31T19:08:23.213Z,98193.28
2022-07-31T19:10:53.265Z,98202.97
2022-07-31T19:13:23.821Z,98201.28
2022-07-31T19:15:52.974Z,98215.41
2022-07-31T19:18:28.277Z,98215.56
2022-07-31T19:21:23.523Z,98194.31
2022-07-31T19:23:47.152Z,98218.22
2022-07-31T19:26:14.160Z,98217.41
2022-07-31T19:28:43.784Z,98222.72
2022-07-31T19:31:13.117Z,98229.72
2022-07-31T19:33:40.835Z,98215.72
2022-07-31T19:36:07.689Z,98223.56
2022-07-31T19:38:36.059Z,98214.75
2022-07-31T19:41:03.777Z,98215.72
2022-07-31T19:43:31.031Z,98217.41
2022-07-31T19:46:10.530Z,98223.72
2022-07-31T19:51:12.766Z,98216.72
2022-07-31T19:53:40.039Z,98210.44
2022-07-31T19:58:33.023Z,98215.88
2022-07-31T20:00:59.675Z,98220.34
2022-07-31T20:03:26.510Z,98220.34
2022-07-31T20:05:53.312Z,98217.69
2022-07-31T20:08:22.464Z,98218.53
2022-07-31T20:10:49.361Z,98223.88
2022-07-31T20:13:19.287Z,98227.50
2022-07-31T20:15:52.475Z,98214.19
2022-07-31T20:18:32.299Z,98220.50
2022-07-31T20:21:10.096Z,98214.19
2022-07-31T20:23:38.773Z,98212.53
2022-07-31T20:26:06.902Z,98217.00
2022-07-31T20:28:33.564Z,98217.00
2022-07-31T20:31:02.605Z,98214.34
2022-07-31T20:33:29.343Z,98217.00
2022-07-31T20:35:55.898Z,98228.50
2022-07-31T20:38:24.382Z,98207.19
2022-07-31T20:40:55.589Z,98219.94
2022-07-31T20:43:24.708Z,98225.00
2022-07-31T20:45:52.248Z,98226.81
2022-07-31T20:48:23.723Z,98232.97
2022-07-31T20:50:50.736Z,98219.69
2022-07-31T20:53:17.544Z,98225.00
2022-07-31T20:55:49.641Z,98223.16
2022-07-31T20:58:36.509Z,98221.47
2022-07-31T21:01:03.491Z,98226.81
2022-07-31T21:03:30.068Z,98218.81
2022-07-31T21:05:56.782Z,98220.66
2022-07-31T21:08:23.381Z,98210.00
2022-07-31T21:10:50.068Z,98224.16
2022-07-31T21:13:16.865Z,98230.44
2022-07-31T21:15:45.292Z,98231.31
2022-07-31T21:18:13.960Z,98227.78
2022-07-31T21:20:50.928Z,98217.59
2022-07-31T21:23:24.184Z,98219.25
2022-07-31T21:25:56.585Z,98229.63
2022-07-31T21:28:24.937Z,98222.78
2022-07-31T21:30:56.054Z,98228.78
2022-07-31T21:33:25.960Z,98225.28
2022-07-31T21:35:53.149Z,98220.81
2022-07-31T21:38:23.106Z,98231.47
2022-07-31T21:40:50.382Z,98228.78
2022-07-31T21:43:22.008Z,98226.41
2022-07-31T21:45:56.091Z,98230.44
2022-07-31T21:48:29.687Z,98227.94
2022-07-31T21:50:56.478Z,98223.59
2022-07-31T21:53:23.878Z,98232.44
2022-07-31T21:55:51.094Z,98231.47
2022-07-31T21:58:18.505Z,98236.78
2022-07-31T22:00:45.323Z,98241.25
2022-07-31T22:03:12.120Z,98227.66
2022-07-31T22:05:57.284Z,98236.91
2022-07-31T22:08:23.964Z,98236.06
2022-07-31T22:10:52.195Z,98236.91
2022-07-31T22:13:20.170Z,98236.06
2022-07-31T22:15:52.564Z,98236.06
2022-07-31T22:18:33.191Z,98232.56
2022-07-31T22:21:00.719Z,98239.72
2022-07-31T22:23:28.303Z,98233.41
2022-07-31T22:25:55.352Z,98237.88
2022-07-31T22:28:23.102Z,98243.19
2022-07-31T22:30:51.059Z,98243.19
2022-07-31T22:33:18.585Z,98240.69
2022-07-31T22:35:45.528Z,98243.19
2022-07-31T22:38:27.124Z,98239.88
2022-07-31T22:40:53.755Z,98238.88
2022-07-31T22:44:10.074Z,98241.56
2022-07-31T22:46:08.885Z,98244.22
2022-07-31T22:48:36.663Z,98243.34
2022-07-31T22:51:04.172Z,98239.44
2022-07-31T22:53:30.767Z,98247.84
2022-07-31T22:55:57.407Z,98245.19
2022-07-31T22:58:23.932Z,98239.00
2022-07-31T23:00:50.734Z,98240.84
2022-07-31T23:03:17.336Z,98239.88
2022-07-31T23:08:09.150Z,98236.34
2022-07-31T23:10:35.845Z,98239.00
2022-07-31T23:13:02.413Z,98242.66
2022-07-31T23:15:29.040Z,98238.31
2022-07-31T23:17:55.587Z,98243.50
2022-07-31T23:20:22.222Z,98240.00
2022-07-31T23:22:50.417Z,98240.00
2022-07-31T23:25:20.324Z,98240.00
2022-07-31T23:27:46.992Z,98249.78
2022-07-31T23:30:13.726Z,98247.13
2022-07-31T23:32:40.358Z,98249.78
2022-07-31T23:35:07.474Z,98251.63
2022-07-31T23:37:34.099Z,98249.78
2022-07-31T23:40:00.705Z,98259.59
2022-07-31T23:42:39.523Z,98255.09
2022-07-31T23:45:12.314Z,98263.94
2022-07-31T23:47:44.493Z,98234.69
2022-07-31T23:52:26.404Z,98257.06
2022-07-31T23:54:53.047Z,98247.28
2022-07-31T23:57:19.743Z,98247.28
2022-07-31T23:59:46.559Z,98249.38
